Terminal Aerodrome Forecast
Issued by NWS

Home | Current Version | Previous Version | Text Only | Print | Product List | Glossary On
Versions: 1 2 3 4 5 6 7 8 9 10 11 12 13 14 15 16
000
FTUS43 KBIS 212346
TAFDIK
TAF
KDIK 212346Z 2200/2224 28024G37KT P6SM BKN045 WS020/30035KT
     FM220300 26010KT P6SM FEW090
     FM221500 24017G25KT P6SM BKN080 WS020/25035KT=

USA.gov is the U.S. government's official web portal to all federal, state and local government web resources and services.